Time;durP1;ratioP1;P1;durP2;ratioP2;P2;SDS_P1;SDS_P2;PMS_P1;PMS_P2;Temp;Humidity;BMP_temperature;BMP_pressure;BME280_temperature;BME280_humidity;BME280_pressure;Samples;Min_cycle;Max_cycle;Signal;HPM_P1;HPM_P2
2023/06/17 00:01:05;;;;;;;7.47;5.67;;;20.70;1.00;;;;;;5005233;28;20516;-82
2023/06/17 00:03:31;;;;;;;10.83;6.07;;;20.70;1.00;;;;;;4993532;28;20233;-84
2023/06/17 00:05:56;;;;;;;11.10;6.50;;;20.70;1.00;;;;;;4994616;28;20287;-84
2023/06/17 00:08:22;;;;;;;8.20;6.50;;;20.70;1.00;;;;;;4998636;28;20183;-84
2023/06/17 00:10:47;;;;;;;7.87;7.03;;;20.70;1.00;;;;;;4991395;28;20827;-84
2023/06/17 00:13:19;;;;;;;6.43;5.37;;;20.60;1.00;;;;;;5000103;28;20186;-82
2023/06/17 00:15:47;;;;;;;6.40;5.53;;;20.60;1.00;;;;;;4995889;28;20512;-83
2023/06/17 00:18:14;;;;;;;7.90;5.90;;;20.60;1.00;;;;;;4999569;28;20437;-84
2023/06/17 00:20:39;;;;;;;7.10;5.17;;;20.50;1.00;;;;;;4990045;28;20461;-85
2023/06/17 00:23:06;;;;;;;5.60;4.93;;;20.50;1.00;;;;;;4993218;28;20502;-84
2023/06/17 00:25:31;;;;;;;9.43;4.93;;;20.40;1.00;;;;;;4987818;28;20209;-84
2023/06/17 00:27:57;;;;;;;10.43;5.20;;;20.40;1.00;;;;;;4999858;28;20448;-83
2023/06/17 00:30:22;;;;;;;7.13;4.50;;;20.40;1.00;;;;;;5001405;28;20229;-83
2023/06/17 00:32:48;;;;;;;9.10;5.17;;;20.30;1.00;;;;;;5001430;28;20186;-83
2023/06/17 00:35:13;;;;;;;5.23;4.73;;;20.20;1.00;;;;;;4999855;28;20683;-85
2023/06/17 00:37:39;;;;;;;9.07;4.87;;;20.10;1.00;;;;;;4997711;28;20204;-83
2023/06/17 00:40:09;;;;;;;6.73;5.40;;;20.10;1.00;;;;;;4998506;28;20635;-83
2023/06/17 00:42:37;;;;;;;6.03;5.43;;;20.10;1.00;;;;;;4999101;28;20190;-83
2023/06/17 00:45:03;;;;;;;6.17;5.57;;;20.00;1.00;;;;;;4998661;28;20481;-84
2023/06/17 00:47:30;;;;;;;5.40;4.63;;;20.00;1.00;;;;;;5001294;28;20436;-83
2023/06/17 00:49:56;;;;;;;7.90;5.03;;;20.00;1.00;;;;;;5000807;28;20822;-84
2023/06/17 00:52:22;;;;;;;8.17;5.47;;;20.00;1.00;;;;;;5002559;28;20503;-84
2023/06/17 00:54:47;;;;;;;5.97;5.37;;;20.00;1.00;;;;;;5002101;28;20553;-83
2023/06/17 00:57:14;;;;;;;7.00;5.67;;;19.90;1.00;;;;;;4999525;28;20490;-84
2023/06/17 00:59:42;;;;;;;6.73;5.07;;;19.90;1.00;;;;;;4991516;28;20231;-82
2023/06/17 01:02:09;;;;;;;9.30;5.80;;;19.90;1.00;;;;;;5001255;28;20444;-83
2023/06/17 01:04:40;;;;;;;7.37;5.57;;;19.80;1.00;;;;;;5004769;28;20447;-83
2023/06/17 01:07:16;;;;;;;8.33;5.37;;;19.80;1.00;;;;;;5001116;28;20447;-84
2023/06/17 01:09:47;;;;;;;5.87;5.27;;;19.80;1.00;;;;;;5000500;28;20459;-84
2023/06/17 01:12:14;;;;;;;7.07;5.70;;;19.80;1.00;;;;;;4993901;28;20436;-83
2023/06/17 01:14:41;;;;;;;8.57;5.33;;;19.70;1.00;;;;;;4999359;28;20425;-83
2023/06/17 01:17:12;;;;;;;7.10;5.40;;;19.70;1.00;;;;;;5001487;28;20457;-83
2023/06/17 01:19:39;;;;;;;5.40;4.90;;;19.70;1.00;;;;;;4991357;28;20455;-83
2023/06/17 01:22:08;;;;;;;7.20;5.57;;;19.60;1.00;;;;;;4997168;28;20430;-84
2023/06/17 01:24:34;;;;;;;8.03;5.17;;;19.60;1.00;;;;;;4986639;28;20485;-83
2023/06/17 01:27:02;;;;;;;7.27;5.30;;;19.50;1.00;;;;;;4995809;28;20475;-85
2023/06/17 01:29:32;;;;;;;6.80;5.10;;;19.50;1.00;;;;;;4995237;28;20968;-83
2023/06/17 01:31:59;;;;;;;6.93;5.23;;;19.40;1.00;;;;;;5002217;28;20516;-83
2023/06/17 01:34:40;;;;;;;9.10;5.83;;;19.40;1.00;;;;;;5003265;28;21019;-83
2023/06/17 01:37:11;;;;;;;5.90;5.30;;;19.30;1.00;;;;;;5004665;28;20447;-84
2023/06/17 01:39:39;;;;;;;8.27;5.47;;;19.30;1.00;;;;;;5002654;28;20464;-83
2023/06/17 01:42:09;;;;;;;8.73;6.30;;;19.30;1.00;;;;;;4997947;28;20536;-84
2023/06/17 01:44:36;;;;;;;7.60;5.83;;;19.20;1.00;;;;;;5001695;28;22406;-83
2023/06/17 01:47:03;;;;;;;8.10;6.10;;;19.20;1.00;;;;;;5003601;28;20454;-83
2023/06/17 01:49:29;;;;;;;7.40;5.90;;;19.10;1.00;;;;;;5004467;28;20572;-84
2023/06/17 01:51:54;;;;;;;6.73;6.07;;;19.10;1.00;;;;;;4999162;28;20469;-84
2023/06/17 01:54:20;;;;;;;9.40;6.80;;;19.10;1.00;;;;;;5002899;28;20184;-84
2023/06/17 01:56:46;;;;;;;12.43;5.40;;;19.10;1.00;;;;;;5002716;28;20588;-83
2023/06/17 01:59:11;;;;;;;9.90;5.97;;;19.00;1.00;;;;;;5003950;28;20211;-83
2023/06/17 02:01:37;;;;;;;7.73;5.67;;;19.00;1.00;;;;;;4998906;28;20557;-83
2023/06/17 02:04:05;;;;;;;6.37;5.50;;;19.00;1.00;;;;;;5004240;28;20216;-83
2023/06/17 02:06:30;;;;;;;8.87;5.70;;;19.00;1.00;;;;;;5003835;28;20217;-83
2023/06/17 02:08:56;;;;;;;6.20;5.60;;;18.90;1.00;;;;;;5002884;28;20830;-83
2023/06/17 02:11:21;;;;;;;6.20;5.37;;;18.90;1.00;;;;;;4996556;28;20196;-83
2023/06/17 02:13:47;;;;;;;9.47;5.90;;;18.90;1.00;;;;;;4992378;28;20218;-84
2023/06/17 02:16:12;;;;;;;10.73;5.40;;;18.90;1.00;;;;;;5002030;28;20291;-83
2023/06/17 02:18:39;;;;;;;5.97;5.07;;;18.90;1.00;;;;;;4996126;28;20200;-83
2023/06/17 02:21:05;;;;;;;7.30;6.60;;;18.90;1.00;;;;;;5000838;28;20199;-83
2023/06/17 02:23:30;;;;;;;9.83;6.50;;;18.80;1.00;;;;;;5002757;28;20438;-83
2023/06/17 02:25:56;;;;;;;7.00;5.43;;;18.80;1.00;;;;;;5002537;28;20229;-82
2023/06/17 02:28:22;;;;;;;6.97;5.30;;;18.80;1.00;;;;;;5001739;28;20190;-85
2023/06/17 02:30:47;;;;;;;7.03;5.60;;;18.80;1.00;;;;;;5002377;28;20439;-83
2023/06/17 02:33:17;;;;;;;6.77;5.70;;;18.80;1.00;;;;;;5000301;28;20188;-84
2023/06/17 02:35:44;;;;;;;7.30;6.30;;;18.80;1.00;;;;;;4996796;28;20188;-83
2023/06/17 02:38:10;;;;;;;8.93;5.70;;;18.70;1.40;;;;;;5002207;28;20449;-83
2023/06/17 02:40:36;;;;;;;8.67;5.40;;;18.70;1.70;;;;;;4999165;28;20443;-82
2023/06/17 02:43:01;;;;;;;8.87;5.83;;;18.70;2.20;;;;;;5018963;28;20226;-85
2023/06/17 02:45:27;;;;;;;12.33;5.80;;;18.70;2.80;;;;;;4983595;28;20213;-83
2023/06/17 02:47:52;;;;;;;8.63;5.27;;;18.70;2.90;;;;;;4984239;28;20719;-83
2023/06/17 02:50:22;;;;;;;6.37;5.70;;;18.70;3.50;;;;;;4983079;28;20235;-83
2023/06/17 02:52:47;;;;;;;6.57;5.37;;;18.60;3.90;;;;;;4986655;28;20273;-83
2023/06/17 02:55:15;;;;;;;7.30;5.97;;;18.60;4.00;;;;;;4998754;28;20460;-84
2023/06/17 02:57:40;;;;;;;11.53;6.07;;;18.60;4.30;;;;;;4996573;28;20246;-83
2023/06/17 03:00:08;;;;;;;7.80;5.63;;;18.50;5.00;;;;;;4993112;28;21009;-83
2023/06/17 03:02:34;;;;;;;7.00;5.70;;;18.50;5.50;;;;;;4999829;28;20198;-82
2023/06/17 03:04:59;;;;;;;6.30;5.70;;;18.50;5.80;;;;;;4997330;28;20469;-82
2023/06/17 03:07:25;;;;;;;9.23;5.93;;;18.50;6.20;;;;;;4997145;28;20190;-82
2023/06/17 03:09:50;;;;;;;7.50;6.40;;;18.40;7.10;;;;;;4993047;28;20196;-83
2023/06/17 03:12:16;;;;;;;7.83;7.00;;;18.40;7.80;;;;;;4995404;28;20182;-83
2023/06/17 03:14:41;;;;;;;8.10;6.53;;;18.40;8.10;;;;;;4998706;28;20193;-84
2023/06/17 03:17:07;;;;;;;15.33;6.57;;;18.30;8.80;;;;;;4997246;28;20189;-86
2023/06/17 03:19:33;;;;;;;10.43;6.93;;;18.20;9.20;;;;;;4997703;28;20210;-83
2023/06/17 03:21:59;;;;;;;10.10;6.03;;;18.20;9.60;;;;;;4993844;28;20627;-83
2023/06/17 03:24:25;;;;;;;9.93;7.13;;;18.20;10.80;;;;;;4995336;28;20201;-83
2023/06/17 03:26:51;;;;;;;7.20;6.47;;;18.20;11.90;;;;;;4997845;28;20771;-83
2023/06/17 03:29:16;;;;;;;7.30;6.60;;;18.20;12.90;;;;;;4997451;28;20222;-82
2023/06/17 03:31:42;;;;;;;10.20;7.43;;;18.20;13.90;;;;;;4996213;28;20521;-83
2023/06/17 03:34:08;;;;;;;10.17;7.07;;;18.20;14.40;;;;;;4995611;28;20195;-83
2023/06/17 03:36:33;;;;;;;9.00;6.50;;;18.10;14.70;;;;;;4998967;28;20192;-84
2023/06/17 03:38:59;;;;;;;11.20;6.33;;;18.10;25.10;;;;;;4995442;28;20348;-82
2023/06/17 03:41:28;;;;;;;6.90;5.90;;;18.10;16.40;;;;;;4985328;28;20222;-83
2023/06/17 03:43:53;;;;;;;8.20;6.67;;;18.10;17.00;;;;;;4991721;28;20186;-83
2023/06/17 03:46:20;;;;;;;9.73;7.30;;;18.10;17.40;;;;;;4982436;28;20485;-83
2023/06/17 03:48:45;;;;;;;10.73;8.40;;;18.00;18.20;;;;;;4986342;28;20217;-83
2023/06/17 03:51:11;;;;;;;9.63;8.63;;;18.00;18.10;;;;;;4980024;28;20438;-84
2023/06/17 03:53:37;;;;;;;9.07;8.17;;;17.90;18.50;;;;;;4985432;28;20551;-84
2023/06/17 03:56:02;;;;;;;10.00;8.13;;;17.80;18.80;;;;;;4992144;28;20203;-84
2023/06/17 03:58:28;;;;;;;10.70;9.00;;;17.60;19.20;;;;;;4992462;28;20220;-82
2023/06/17 04:00:54;;;;;;;11.10;8.63;;;17.60;20.20;;;;;;4996419;28;20176;-84
2023/06/17 04:03:19;;;;;;;12.97;9.00;;;17.50;21.70;;;;;;4987207;28;20197;-84
2023/06/17 04:05:45;;;;;;;9.80;8.30;;;17.60;22.60;;;;;;4994703;28;20220;-83
2023/06/17 04:08:11;;;;;;;10.97;7.30;;;17.70;23.70;;;;;;4992503;28;20192;-83
2023/06/17 04:10:36;;;;;;;9.37;7.60;;;17.80;24.70;;;;;;4994409;28;20465;-83
2023/06/17 04:13:02;;;;;;;11.17;8.53;;;17.80;25.10;;;;;;4985577;28;20256;-83
2023/06/17 04:15:28;;;;;;;11.40;8.57;;;17.90;25.50;;;;;;4983295;28;20192;-83
2023/06/17 04:17:53;;;;;;;8.60;7.70;;;17.90;24.70;;;;;;4991560;28;20274;-84
2023/06/17 04:20:19;;;;;;;11.10;7.30;;;17.90;24.90;;;;;;4994822;28;20295;-83
2023/06/17 04:22:45;;;;;;;9.23;8.23;;;18.00;25.00;;;;;;4994634;28;20231;-84
2023/06/17 04:25:12;;;;;;;11.10;8.83;;;17.90;25.30;;;;;;4993062;28;20513;-83
2023/06/17 04:27:38;;;;;;;8.17;7.30;;;17.90;25.70;;;;;;4993361;28;20190;-84
2023/06/17 04:30:08;;;;;;;8.87;7.93;;;18.00;26.00;;;;;;4990422;28;20465;-84
2023/06/17 04:32:35;;;;;;;10.30;9.20;;;18.00;26.10;;;;;;4985025;28;20467;-83
2023/06/17 04:35:03;;;;;;;9.47;8.00;;;18.10;26.10;;;;;;4993187;28;20485;-83
2023/06/17 04:37:30;;;;;;;11.30;7.87;;;18.30;27.40;;;;;;4994500;28;20445;-84
2023/06/17 04:39:56;;;;;;;10.97;8.60;;;18.40;27.60;;;;;;4994652;28;20467;-82
2023/06/17 04:42:22;;;;;;;9.63;8.60;;;18.50;27.00;;;;;;4992807;28;20443;-83
2023/06/17 04:44:48;;;;;;;12.10;8.60;;;18.60;26.70;;;;;;4984226;28;20508;-84
2023/06/17 04:47:16;;;;;;;10.63;8.17;;;18.70;26.90;;;;;;4986223;28;20450;-84
2023/06/17 04:49:44;;;;;;;12.80;8.87;;;18.80;26.50;;;;;;4987918;28;20518;-83
2023/06/17 04:52:13;;;;;;;11.60;7.77;;;18.90;26.60;;;;;;4996665;28;20948;-84
2023/06/17 04:54:38;;;;;;;8.73;7.83;;;19.00;26.60;;;;;;4990567;28;20484;-84
2023/06/17 04:57:04;;;;;;;9.43;7.80;;;19.20;26.20;;;;;;4996295;28;20457;-84
2023/06/17 04:59:30;;;;;;;9.27;7.93;;;19.30;25.70;;;;;;4989677;28;20788;-84
2023/06/17 05:01:56;;;;;;;8.50;7.13;;;19.40;36.60;;;;;;4992640;28;20227;-83
2023/06/17 05:04:21;;;;;;;8.07;7.20;;;19.50;25.60;;;;;;4990860;28;20203;-84
2023/06/17 05:06:47;;;;;;;6.83;6.13;;;19.60;25.80;;;;;;4994777;28;20209;-84
2023/06/17 05:09:13;;;;;;;9.60;8.60;;;19.70;25.40;;;;;;4993593;28;20210;-82
2023/06/17 05:11:40;;;;;;;9.37;7.23;;;19.80;24.90;;;;;;4994930;28;20197;-84
2023/06/17 05:14:06;;;;;;;8.67;7.70;;;19.90;24.20;;;;;;4983595;28;20194;-84
2023/06/17 05:16:31;;;;;;;7.40;6.70;;;20.00;24.20;;;;;;4995269;28;20472;-84
2023/06/17 05:18:57;;;;;;;10.33;7.70;;;20.10;23.90;;;;;;4996796;28;20218;-83
2023/06/17 05:21:22;;;;;;;9.80;7.17;;;20.20;23.60;;;;;;4990425;28;20337;-84
2023/06/17 05:23:48;;;;;;;7.30;6.60;;;20.20;23.40;;;;;;4993812;28;20278;-83
2023/06/17 05:26:14;;;;;;;9.87;7.00;;;20.40;23.40;;;;;;4994563;28;20218;-84
2023/06/17 05:28:40;;;;;;;8.80;7.83;;;20.60;22.60;;;;;;4994724;28;20453;-84
2023/06/17 05:31:05;;;;;;;10.20;7.10;;;20.60;22.30;;;;;;4996395;28;20257;-84
2023/06/17 05:33:31;;;;;;;8.20;7.40;;;20.70;22.10;;;;;;4988108;28;20192;-83
2023/06/17 05:36:00;;;;;;;9.07;6.90;;;20.80;22.20;;;;;;4981885;28;20187;-84
2023/06/17 05:38:26;;;;;;;10.13;7.93;;;21.00;22.50;;;;;;4981884;28;20212;-84
2023/06/17 05:40:51;;;;;;;9.57;8.57;;;21.10;22.30;;;;;;4986663;28;20786;-83
2023/06/17 05:43:17;;;;;;;10.00;9.00;;;21.20;22.10;;;;;;4982716;28;20432;-83
2023/06/17 05:45:42;;;;;;;10.17;9.17;;;21.30;21.90;;;;;;4984076;28;20220;-84
2023/06/17 05:48:08;;;;;;;12.27;7.40;;;21.40;21.20;;;;;;4981032;28;20196;-84
2023/06/17 05:50:33;;;;;;;12.73;8.30;;;21.50;21.00;;;;;;4979722;28;20266;-84
2023/06/17 05:52:59;;;;;;;10.50;8.27;;;21.70;20.90;;;;;;4988539;28;20211;-84
2023/06/17 05:55:24;;;;;;;9.13;8.17;;;21.90;20.20;;;;;;4998397;28;20204;-83
2023/06/17 05:57:51;;;;;;;9.90;8.70;;;22.00;20.20;;;;;;4986242;28;20192;-82
2023/06/17 06:00:18;;;;;;;9.13;8.13;;;22.10;20.60;;;;;;4995591;28;20210;-82
2023/06/17 06:02:43;;;;;;;5.93;5.32;;;22.30;21.40;;;;;;4995885;28;20444;-82
2023/06/17 06:05:09;;;;;;;9.53;6.30;;;22.50;21.30;;;;;;4991435;28;20205;-84
2023/06/17 06:07:35;;;;;;;7.87;7.07;;;22.90;21.80;;;;;;4986592;28;20186;-83
2023/06/17 06:10:03;;;;;;;7.33;4.73;;;23.30;22.50;;;;;;4980862;28;20472;-83
2023/06/17 06:12:29;;;;;;;8.33;6.53;;;23.80;23.40;;;;;;4992068;28;20192;-84
2023/06/17 06:14:55;;;;;;;7.50;5.50;;;24.80;35.30;;;;;;4998681;28;20513;-83
2023/06/17 06:17:21;;;;;;;6.37;5.77;;;26.30;39.30;;;;;;5002412;28;20932;-83
2023/06/17 06:19:46;;;;;;;13.83;8.27;;;29.50;33.20;;;;;;5001472;28;20267;-83
2023/06/17 06:22:12;;;;;;;11.73;7.20;;;32.60;36.20;;;;;;5001210;28;20201;-83
2023/06/17 06:24:37;;;;;;;7.50;6.70;;;35.00;35.60;;;;;;5001828;28;20191;-83
2023/06/17 06:27:03;;;;;;;4.47;4.07;;;37.20;30.90;;;;;;5000501;28;20207;-85
2023/06/17 06:29:29;;;;;;;8.07;5.23;;;39.10;25.20;;;;;;4991902;28;20298;-85
2023/06/17 06:31:54;;;;;;;5.30;4.80;;;41.00;19.30;;;;;;4990419;28;20659;-85
2023/06/17 06:34:20;;;;;;;4.20;3.80;;;42.70;12.90;;;;;;4995364;28;20230;-86
2023/06/17 06:36:45;;;;;;;5.80;4.20;;;44.20;6.90;;;;;;4992342;28;20193;-86
2023/06/17 06:39:11;;;;;;;6.03;4.23;;;45.30;1.30;;;;;;4993061;28;20287;-86
2023/06/17 06:41:36;;;;;;;6.80;6.10;;;46.30;1.00;;;;;;4987784;28;20191;-86
2023/06/17 06:44:02;;;;;;;5.13;3.67;;;47.10;1.00;;;;;;4991227;28;20211;-85
2023/06/17 06:46:28;;;;;;;6.47;4.20;;;47.80;1.00;;;;;;4993404;28;20733;-85
2023/06/17 06:48:54;;;;;;;8.07;5.60;;;48.70;1.00;;;;;;4993396;28;20202;-85
2023/06/17 06:51:20;;;;;;;6.10;5.60;;;49.40;1.00;;;;;;4992767;28;20198;-87
2023/06/17 06:53:45;;;;;;;4.43;3.70;;;49.60;1.00;;;;;;4997189;28;20446;-86
2023/06/17 06:56:11;;;;;;;5.80;3.90;;;50.10;1.00;;;;;;4997384;28;20603;-86
2023/06/17 06:58:37;;;;;;;8.90;5.03;;;50.70;1.00;;;;;;5003847;28;20194;-85
2023/06/17 07:01:03;;;;;;;6.60;5.90;;;51.50;1.00;;;;;;4998225;28;20238;-85
2023/06/17 07:03:28;;;;;;;11.63;7.60;;;52.00;1.00;;;;;;4981514;28;20609;-86
2023/06/17 07:05:56;;;;;;;6.20;5.50;;;52.30;1.00;;;;;;4979689;28;20218;-86
2023/06/17 07:08:24;;;;;;;14.67;9.70;;;52.30;1.00;;;;;;4991434;28;20187;-85
2023/06/17 07:10:49;;;;;;;8.03;5.43;;;52.10;1.00;;;;;;4983027;28;20185;-86
2023/06/17 07:13:40;;;;;;;5.33;4.83;;;52.30;1.00;;;;;;4995171;28;20174;-85
2023/06/17 07:16:06;;;;;;;16.20;9.70;;;51.90;1.00;;;;;;4992504;28;20689;-86
2023/06/17 07:18:31;;;;;;;14.83;7.60;;;52.30;1.00;;;;;;4993038;28;20215;-86
2023/06/17 07:20:57;;;;;;;7.20;5.03;;;53.00;1.00;;;;;;4991050;28;20266;-86
2023/06/17 07:23:28;;;;;;;7.72;6.55;;;53.50;1.00;;;;;;4990303;28;20195;-86
2023/06/17 07:25:59;;;;;;;5.82;3.55;;;53.90;1.00;;;;;;4993470;28;20187;-86
2023/06/17 07:28:25;;;;;;;8.13;4.65;;;54.50;1.00;;;;;;4992735;28;20186;-85
2023/06/17 07:30:51;;;;;;;8.43;4.60;;;54.40;1.00;;;;;;4991060;28;20190;-86
2023/06/17 07:33:19;;;;;;;5.68;3.78;;;54.40;1.00;;;;;;4989477;28;20183;-86
2023/06/17 07:35:47;;;;;;;6.18;4.20;;;54.20;1.00;;;;;;4987355;28;20206;-86
2023/06/17 07:38:13;;;;;;;5.95;4.47;;;54.30;1.00;;;;;;4980110;28;20196;-86
2023/06/17 07:40:39;;;;;;;7.38;3.85;;;54.50;1.00;;;;;;4984035;28;20199;-86
2023/06/17 07:43:09;;;;;;;8.25;3.90;;;54.10;1.00;;;;;;4992035;28;20187;-86
2023/06/17 07:45:38;;;;;;;11.80;4.57;;;53.90;1.00;;;;;;4994845;28;20190;-87
2023/06/17 07:48:07;;;;;;;8.57;4.05;;;53.70;1.00;;;;;;4994961;28;20179;-86
2023/06/17 07:50:32;;;;;;;6.57;4.20;;;53.60;1.00;;;;;;4994918;28;20242;-85
2023/06/17 07:52:58;;;;;;;7.28;4.22;;;53.90;1.00;;;;;;4991911;28;20658;-84
2023/06/17 07:55:25;;;;;;;8.30;3.92;;;54.10;1.00;;;;;;4990632;28;20217;-83
2023/06/17 07:57:51;;;;;;;6.28;3.60;;;54.00;1.00;;;;;;4980789;28;20189;-85
2023/06/17 08:00:17;;;;;;;8.75;3.95;;;54.00;1.00;;;;;;4987988;28;20297;-86
2023/06/17 08:02:45;;;;;;;8.38;3.90;;;54.50;1.00;;;;;;4989611;28;20660;-86
2023/06/17 08:05:10;;;;;;;10.38;4.40;;;55.00;1.00;;;;;;4982550;28;20468;-85
2023/06/17 08:07:36;;;;;;;7.20;4.13;;;55.30;1.00;;;;;;4978159;28;20615;-84
2023/06/17 08:10:02;;;;;;;3.60;3.30;;;54.90;1.00;;;;;;4984415;28;21343;-84
2023/06/17 08:12:27;;;;;;;8.90;4.35;;;54.10;1.00;;;;;;4989192;28;20179;-85
2023/06/17 08:14:56;;;;;;;6.70;3.72;;;54.30;1.00;;;;;;4989204;28;20620;-85
2023/06/17 08:17:21;;;;;;;5.90;4.30;;;54.10;1.00;;;;;;4986848;28;20195;-84
2023/06/17 08:19:47;;;;;;;11.15;5.03;;;54.30;1.00;;;;;;4980821;28;20195;-85
2023/06/17 08:22:12;;;;;;;7.80;3.58;;;54.30;1.00;;;;;;4989181;28;20534;-85
2023/06/17 08:24:38;;;;;;;5.47;4.45;;;54.30;1.00;;;;;;4992359;28;20179;-84
2023/06/17 08:27:06;;;;;;;9.98;3.70;;;54.50;1.00;;;;;;4993307;28;20587;-83
2023/06/17 08:29:32;;;;;;;6.85;3.55;;;54.60;1.00;;;;;;4990419;28;20202;-84
2023/06/17 08:31:57;;;;;;;5.07;3.33;;;54.70;1.00;;;;;;4992186;28;20187;-83
2023/06/17 08:34:23;;;;;;;7.45;3.92;;;54.80;1.00;;;;;;4989186;28;20188;-83
2023/06/17 08:36:54;;;;;;;10.10;3.65;;;55.00;1.00;;;;;;4991861;28;20206;-85
2023/06/17 08:39:20;;;;;;;9.02;3.38;;;55.10;1.00;;;;;;4989402;28;20199;-85
2023/06/17 08:41:46;;;;;;;4.90;3.38;;;55.40;1.00;;;;;;4992925;28;20175;-86
2023/06/17 08:44:13;;;;;;;7.95;3.67;;;55.50;1.00;;;;;;4992505;28;20320;-85
2023/06/17 08:46:41;;;;;;;8.15;3.03;;;55.70;1.00;;;;;;4993583;28;20266;-85
2023/06/17 08:49:07;;;;;;;7.78;3.70;;;56.00;1.00;;;;;;4992432;28;20214;-85
2023/06/17 08:51:34;;;;;;;8.50;4.43;;;56.10;1.00;;;;;;4994272;28;20191;-85
2023/06/17 08:54:00;;;;;;;5.38;3.15;;;55.80;1.00;;;;;;4993014;28;20183;-85
2023/06/17 08:56:26;;;;;;;5.18;3.00;;;55.80;1.00;;;;;;4988904;28;20685;-86
2023/06/17 08:58:54;;;;;;;3.85;3.50;;;55.80;1.00;;;;;;4994314;28;20217;-85
2023/06/17 09:01:21;;;;;;;6.00;3.28;;;55.80;1.00;;;;;;4993147;28;20179;-86
2023/06/17 09:03:50;;;;;;;4.18;2.78;;;56.10;1.00;;;;;;4994278;28;20175;-85
2023/06/17 09:06:20;;;;;;;5.88;3.10;;;56.30;1.00;;;;;;4994535;28;20195;-85
2023/06/17 09:08:50;;;;;;;3.70;3.00;;;56.30;1.00;;;;;;4995806;28;20231;-86
2023/06/17 09:11:17;;;;;;;3.60;2.67;;;56.30;1.00;;;;;;4994142;28;20183;-85
2023/06/17 09:13:42;;;;;;;7.00;3.60;;;55.90;1.00;;;;;;4997205;28;20269;-86
2023/06/17 09:16:08;;;;;;;6.53;3.40;;;55.50;1.00;;;;;;4997450;28;21087;-85
2023/06/17 09:18:35;;;;;;;3.47;3.05;;;55.40;1.00;;;;;;4997751;28;20203;-85
2023/06/17 09:21:03;;;;;;;3.35;3.05;;;55.20;1.00;;;;;;4997768;28;20186;-85
2023/06/17 09:23:29;;;;;;;5.90;2.95;;;55.30;1.00;;;;;;4998148;28;20195;-85
2023/06/17 09:26:02;;;;;;;4.40;3.17;;;55.00;1.00;;;;;;4997714;28;20183;-85
2023/06/17 09:28:28;;;;;;;4.80;3.13;;;54.70;1.00;;;;;;4997646;28;20214;-85
2023/06/17 09:30:56;;;;;;;3.27;2.97;;;54.70;1.00;;;;;;4989101;28;20179;-85
2023/06/17 09:33:23;;;;;;;6.27;3.60;;;54.40;1.00;;;;;;4997580;28;20273;-86
2023/06/17 09:36:19;;;;;;;4.50;2.73;;;54.00;1.00;;;;;;4997754;28;20218;-85
2023/06/17 09:38:45;;;;;;;6.60;2.90;;;53.90;1.00;;;;;;4979275;28;20214;-85
2023/06/17 09:41:15;;;;;;;6.33;3.23;;;53.70;1.00;;;;;;4995966;28;20334;-85
2023/06/17 09:43:41;;;;;;;4.57;3.10;;;53.40;1.00;;;;;;4996218;28;20190;-85
2023/06/17 09:46:09;;;;;;;4.17;3.33;;;53.40;1.00;;;;;;4996372;28;20183;-86
2023/06/17 09:48:38;;;;;;;3.40;3.10;;;53.40;1.00;;;;;;4995858;28;20285;-85
2023/06/17 09:51:09;;;;;;;5.60;2.93;;;53.30;1.00;;;;;;4996902;28;20656;-85
2023/06/17 09:53:35;;;;;;;7.70;3.07;;;53.40;1.00;;;;;;4997084;28;20564;-85
2023/06/17 09:56:02;;;;;;;3.63;3.30;;;53.60;1.00;;;;;;4996714;28;20210;-84
2023/06/17 09:58:29;;;;;;;4.93;3.00;;;53.60;1.00;;;;;;4995555;28;20209;-85
2023/06/17 10:01:00;;;;;;;7.30;3.40;;;53.30;1.00;;;;;;4997274;28;20202;-85
2023/06/17 10:03:26;;;;;;;4.23;3.33;;;53.30;1.00;;;;;;4992875;28;20183;-85
2023/06/17 10:06:03;;;;;;;3.77;3.30;;;53.20;1.00;;;;;;4993152;28;20202;-85
2023/06/17 10:08:29;;;;;;;3.40;3.10;;;52.80;1.00;;;;;;4996481;28;20274;-86
2023/06/17 10:11:00;;;;;;;4.80;3.10;;;52.70;1.00;;;;;;4986872;28;20618;-86
2023/06/17 10:13:27;;;;;;;3.07;2.80;;;52.30;1.00;;;;;;4986652;28;20546;-85
2023/06/17 10:15:55;;;;;;;4.80;3.33;;;52.10;1.00;;;;;;4983321;28;20203;-86
2023/06/17 10:18:22;;;;;;;3.20;2.97;;;52.00;1.00;;;;;;4973928;28;20241;-86
2023/06/17 10:20:50;;;;;;;3.97;3.00;;;51.40;1.00;;;;;;4984166;28;20831;-86
2023/06/17 10:23:19;;;;;;;5.60;2.80;;;51.30;1.00;;;;;;4990896;28;20425;-85
2023/06/17 10:25:45;;;;;;;3.30;3.00;;;51.00;1.00;;;;;;4993271;28;20446;-84
2023/06/17 10:28:13;;;;;;;10.57;3.63;;;51.10;1.00;;;;;;4994971;28;20461;-85
2023/06/17 10:30:43;;;;;;;3.97;3.10;;;51.20;1.00;;;;;;4994983;28;20418;-84
2023/06/17 10:33:08;;;;;;;5.27;3.37;;;51.20;1.00;;;;;;4986563;28;20434;-85
2023/06/17 10:35:38;;;;;;;4.67;2.97;;;51.10;1.00;;;;;;4993655;28;20524;-85
2023/06/17 10:38:04;;;;;;;7.43;3.97;;;50.80;1.00;;;;;;4992828;28;20190;-85
2023/06/17 10:40:35;;;;;;;4.87;3.40;;;50.60;1.00;;;;;;4994032;28;20446;-86
2023/06/17 10:43:04;;;;;;;3.70;2.90;;;50.10;1.00;;;;;;4990101;28;20179;-86
2023/06/17 10:45:46;;;;;;;6.53;4.10;;;49.70;1.00;;;;;;4992229;28;20449;-85
2023/06/17 10:48:24;;;;;;;6.27;3.40;;;49.60;1.00;;;;;;4995053;28;20418;-86
2023/06/17 10:50:57;;;;;;;3.83;2.90;;;48.90;1.00;;;;;;4994400;28;20517;-86
2023/06/17 10:53:35;;;;;;;6.97;3.63;;;48.40;1.00;;;;;;4994950;28;20414;-86
2023/06/17 10:56:03;;;;;;;3.80;3.40;;;48.20;1.00;;;;;;4996312;28;20468;-86
2023/06/17 10:58:37;;;;;;;3.70;3.40;;;48.10;1.00;;;;;;4997872;28;20449;-85
2023/06/17 11:01:06;;;;;;;3.63;3.33;;;48.00;1.00;;;;;;4995080;28;20437;-85
2023/06/17 11:03:32;;;;;;;6.20;3.10;;;48.20;1.00;;;;;;4995454;28;20417;-85
2023/06/17 11:06:05;;;;;;;4.37;2.90;;;48.30;1.00;;;;;;4994828;28;20481;-85
2023/06/17 11:08:34;;;;;;;4.50;3.40;;;48.30;1.00;;;;;;4993029;28;20528;-85
2023/06/17 11:11:09;;;;;;;4.40;3.30;;;48.30;1.00;;;;;;4987449;28;20437;-85
2023/06/17 11:13:38;;;;;;;9.60;3.67;;;47.60;1.00;;;;;;4992549;28;20496;-86
2023/06/17 11:16:03;;;;;;;4.73;3.43;;;47.00;1.00;;;;;;5003479;28;20469;-85
2023/06/17 11:18:29;;;;;;;7.43;3.50;;;47.00;1.00;;;;;;4998079;28;20454;-85
2023/06/17 11:20:54;;;;;;;4.83;3.23;;;47.20;1.00;;;;;;4989423;28;20187;-85
2023/06/17 11:23:20;;;;;;;3.80;3.40;;;46.90;1.00;;;;;;4997255;28;20739;-85
2023/06/17 11:25:49;;;;;;;3.67;3.37;;;47.00;1.00;;;;;;5006446;28;20210;-86
2023/06/17 11:28:15;;;;;;;6.60;3.40;;;46.90;1.00;;;;;;5016020;28;20185;-86
2023/06/17 11:30:42;;;;;;;5.70;3.10;;;46.90;1.00;;;;;;5014094;28;21025;-85
2023/06/17 11:33:08;;;;;;;5.47;3.53;;;46.90;1.00;;;;;;5015781;28;20480;-86
2023/06/17 11:35:35;;;;;;;4.43;3.87;;;47.20;1.00;;;;;;5006614;28;20517;-87
2023/06/17 11:38:02;;;;;;;4.20;3.63;;;47.20;1.00;;;;;;5001202;28;20430;-87
2023/06/17 11:40:27;;;;;;;3.40;3.10;;;47.50;1.00;;;;;;5000101;28;20452;-86
2023/06/17 11:42:55;;;;;;;3.43;3.20;;;47.20;1.00;;;;;;4996577;28;20434;-86
2023/06/17 11:45:21;;;;;;;4.47;2.97;;;46.90;1.00;;;;;;5011986;28;20209;-87
2023/06/17 11:47:46;;;;;;;3.63;3.33;;;46.50;1.00;;;;;;4998396;28;20435;-86
2023/06/17 11:50:16;;;;;;;3.40;3.03;;;46.10;1.00;;;;;;5009354;28;20218;-86
2023/06/17 11:52:53;;;;;;;4.13;3.07;;;45.60;1.00;;;;;;4998689;28;20188;-85
2023/06/17 11:55:18;;;;;;;4.00;3.17;;;45.30;1.00;;;;;;5002940;28;20463;-86
2023/06/17 11:57:44;;;;;;;3.80;3.30;;;45.20;1.00;;;;;;4978391;28;20426;-86
2023/06/17 12:00:10;;;;;;;8.07;4.13;;;44.80;1.00;;;;;;4996681;28;20212;-85
2023/06/17 12:02:36;;;;;;;3.80;3.50;;;44.60;1.00;;;;;;4991849;28;20198;-85
2023/06/17 12:05:02;;;;;;;3.97;3.60;;;44.50;1.00;;;;;;4982260;28;20423;-86
2023/06/17 12:07:29;;;;;;;5.30;3.63;;;44.60;1.00;;;;;;5005656;28;20195;-86
2023/06/17 12:09:54;;;;;;;4.87;3.47;;;44.60;1.00;;;;;;4997184;28;20944;-85
2023/06/17 12:12:34;;;;;;;3.73;3.43;;;44.60;1.00;;;;;;4991999;28;20431;-85
2023/06/17 12:15:06;;;;;;;3.53;3.20;;;44.60;1.00;;;;;;4980202;28;20245;-87
2023/06/17 12:17:45;;;;;;;4.23;3.40;;;44.40;1.00;;;;;;4996808;28;20439;-86
2023/06/17 12:20:16;;;;;;;3.40;3.10;;;44.20;1.00;;;;;;5005355;28;20527;-85
2023/06/17 12:22:46;;;;;;;3.93;3.50;;;44.20;1.00;;;;;;4998416;28;20438;-86
2023/06/17 12:25:12;;;;;;;3.83;3.50;;;44.30;1.00;;;;;;4989339;28;20467;-85
2023/06/17 12:27:38;;;;;;;4.43;4.03;;;44.20;1.00;;;;;;5002026;28;20415;-86
2023/06/17 12:30:06;;;;;;;6.10;4.00;;;44.00;1.00;;;;;;4998022;28;20191;-87
2023/06/17 12:32:31;;;;;;;3.80;3.40;;;43.80;1.00;;;;;;5013091;28;20417;-86
2023/06/17 12:34:58;;;;;;;3.70;3.40;;;43.60;1.00;;;;;;5018405;28;20421;-86
2023/06/17 12:37:28;;;;;;;4.37;3.47;;;43.30;1.00;;;;;;5005142;28;20275;-86
2023/06/17 12:39:57;;;;;;;4.10;3.80;;;42.80;1.00;;;;;;4999612;28;20442;-85
2023/06/17 12:42:23;;;;;;;5.23;3.80;;;42.30;1.00;;;;;;5002851;28;20534;-86
2023/06/17 12:44:50;;;;;;;4.47;4.17;;;41.80;1.00;;;;;;5020361;28;20413;-86
2023/06/17 12:47:18;;;;;;;4.00;3.50;;;41.50;1.00;;;;;;5013708;28;20440;-86
2023/06/17 12:49:43;;;;;;;4.63;4.23;;;41.40;1.00;;;;;;5001078;28;20508;-86
2023/06/17 12:52:09;;;;;;;8.27;4.00;;;41.40;1.00;;;;;;5021213;28;20943;-85